Saint-Elie-D'Orford, Canada
Current Conditions -  °F | °C
As of 7:34 AM on Sunday 23 Nov 2014 (Local Time) from CYSC Reporting Station
Light Rain Light Rain  
Wind Chill: 33°   Ceiling: 500
Heat Index: 37°   Visibility: 2.5mi
Dew Point: 37°   Wind: 6mph
Humidity: 100%   Direction: 190°S
Pressure: 29.99"   Gusts: NA
Location:  45.4°N, 72.03°W
Report Text: CYSC 231234Z AUTO 19005KT 2 1/2SM -RA BR BKN005 OVC014 03/03 A2999 RMK SLP164
Loading
Personal Weather Stations






























Interactive Weather Map New forecast layout! Learn more

10-Day Weather Forecast

Advertisements
Track Severe Weather on mobile